Time;durP1;ratioP1;P1;durP2;ratioP2;P2;SDS_P1;SDS_P2;PMS_P1;PMS_P2;Temp;Humidity;BMP_temperature;BMP_pressure;BME280_temperature;BME280_humidity;BME280_pressure;Samples;Min_cycle;Max_cycle;Signal;HPM_P1;HPM_P2
2024/01/17 00:01:19;;;;;;;12.57;6.50;;;;;;;-145.69;59.54;52373.09;5134025;27;20205;-80
2024/01/17 00:03:45;;;;;;;12.27;6.23;;;;;;;-145.69;59.31;52373.09;5134120;27;20228;-81
2024/01/17 00:06:12;;;;;;;11.10;5.30;;;;;;;-145.69;59.28;52375.06;5133890;27;20224;-80
2024/01/17 00:08:39;;;;;;;11.50;6.27;;;;;;;-145.69;59.62;52379.03;5133918;27;20224;-81
2024/01/17 00:11:06;;;;;;;12.30;5.80;;;;;;;-145.69;59.60;52369.13;5133934;28;20192;-80
2024/01/17 00:13:34;;;;;;;12.00;6.37;;;;;;;-145.69;59.37;52388.94;5141533;27;20192;-81
2024/01/17 00:16:00;;;;;;;12.17;5.80;;;;;;;-145.69;59.36;52396.84;5154761;27;20195;-80
2024/01/17 00:18:27;;;;;;;23.53;6.97;;;;;;;-145.69;59.39;52377.06;5154520;27;20677;-81
2024/01/17 00:20:53;;;;;;;12.87;6.23;;;;;;;-145.69;59.49;52317.66;5154553;27;20211;-81
2024/01/17 00:23:20;;;;;;;13.70;6.47;;;;;;;-145.69;59.33;52365.16;5154425;27;20207;-80
2024/01/17 00:25:48;;;;;;;17.47;6.50;;;;;;;-145.69;59.29;52375.06;5143651;27;20232;-80
2024/01/17 00:28:14;;;;;;;16.93;7.23;;;;;;;-145.69;59.79;52371.13;5133817;27;20203;-81
2024/01/17 00:30:41;;;;;;;17.70;7.20;;;;;;;-145.69;58.98;52388.94;5133946;27;20200;-81
2024/01/17 00:33:07;;;;;;;13.07;6.63;;;;;;;-145.69;59.35;52349.31;5133631;27;20196;-81
2024/01/17 00:35:34;;;;;;;12.33;7.03;;;;;;;-145.69;58.87;52365.16;5133620;27;20201;-80
2024/01/17 00:38:00;;;;;;;13.40;7.37;;;;;;;-145.69;58.88;52359.22;5136168;27;20204;-80
2024/01/17 00:40:27;;;;;;;18.17;7.80;;;;;;;-145.69;59.46;52375.06;5137890;27;20201;-81
2024/01/17 00:42:56;;;;;;;13.63;6.60;;;;;;;-145.69;59.06;52357.25;5137866;27;20272;-81
2024/01/17 00:45:22;;;;;;;14.73;7.13;;;;;;;-145.69;59.06;52365.16;5144982;27;20236;-80
2024/01/17 00:47:49;;;;;;;13.20;6.67;;;;;;;-145.69;59.21;52365.16;5137368;27;20232;-80
2024/01/17 00:50:18;;;;;;;13.53;7.00;;;;;;;-145.69;59.07;52361.22;5137702;27;20559;-80
2024/01/17 00:52:44;;;;;;;18.03;7.37;;;;;;;-145.69;59.21;52351.31;5137679;27;20209;-80
2024/01/17 00:55:11;;;;;;;15.60;7.17;;;;;;;-145.69;59.16;52369.13;5137541;27;20550;-80
2024/01/17 00:57:37;;;;;;;15.00;6.93;;;;;;;-145.69;58.96;52333.47;5137571;27;20193;-80
2024/01/17 01:00:08;;;;;;;14.33;7.27;;;;;;;-145.69;59.41;52361.22;5137360;27;20197;-80
2024/01/17 01:02:34;;;;;;;14.97;6.70;;;;;;;-145.69;59.11;52349.31;5137483;27;20197;-80
2024/01/17 01:05:01;;;;;;;12.13;6.50;;;;;;;-145.69;59.52;52365.16;5137446;27;20209;-80
2024/01/17 01:07:27;;;;;;;14.40;6.77;;;;;;;-145.69;59.42;52398.84;5137245;27;20582;-80
2024/01/17 01:09:54;;;;;;;15.20;6.77;;;;;;;-145.69;59.81;52414.69;5137457;27;20207;-80
2024/01/17 01:12:20;;;;;;;14.00;6.70;;;;;;;-145.69;59.74;52377.06;5137017;27;20200;-81
2024/01/17 01:14:46;;;;;;;20.37;6.90;;;;;;;-145.69;60.33;52373.09;5131081;27;20566;-80
2024/01/17 01:17:14;;;;;;;15.23;6.70;;;;;;;-145.69;60.37;52369.13;5136952;27;20908;-80
2024/01/17 01:19:41;;;;;;;13.23;6.37;;;;;;;-145.69;60.09;52335.47;5136953;27;20208;-80
2024/01/17 01:22:07;;;;;;;14.50;7.00;;;;;;;-145.69;60.51;52349.31;5137000;27;20219;-79
2024/01/17 01:24:34;;;;;;;13.07;7.43;;;;;;;-145.69;60.50;52361.22;5136875;27;20204;-79
2024/01/17 01:27:00;;;;;;;15.60;7.30;;;;;;;-145.69;60.84;52369.13;5136777;27;20231;-80
2024/01/17 01:29:26;;;;;;;16.43;7.47;;;;;;;-145.69;60.84;52339.44;5136985;27;20552;-80
2024/01/17 01:31:53;;;;;;;16.03;7.40;;;;;;;-145.69;61.23;52384.97;5136783;27;20203;-80
2024/01/17 01:34:21;;;;;;;14.90;7.40;;;;;;;-145.69;61.71;52375.06;5136755;27;20201;-80
2024/01/17 01:36:47;;;;;;;15.77;7.27;;;;;;;-145.69;60.99;52369.13;5136927;27;20201;-80
2024/01/17 01:39:14;;;;;;;15.03;7.60;;;;;;;-145.69;61.82;52369.13;5136651;27;20253;-80
2024/01/17 01:41:41;;;;;;;13.73;7.30;;;;;;;-145.69;62.17;52396.84;5136817;27;20269;-80
2024/01/17 01:44:07;;;;;;;13.17;6.97;;;;;;;-145.69;62.41;52369.13;5136243;27;20204;-80
2024/01/17 01:46:35;;;;;;;15.70;7.30;;;;;;;-145.69;63.40;52363.19;5136462;27;20244;-80
2024/01/17 01:49:01;;;;;;;15.63;7.27;;;;;;;-145.69;63.36;52396.84;5135366;27;20546;-79
2024/01/17 01:51:29;;;;;;;19.23;8.10;;;;;;;-145.69;63.35;52384.97;5136495;27;20193;-81
2024/01/17 01:53:58;;;;;;;16.10;7.97;;;;;;;-145.69;63.03;52379.03;5135315;27;20192;-82
2024/01/17 01:56:28;;;;;;;15.97;7.47;;;;;;;-145.69;63.20;52377.06;5136348;27;20562;-81
2024/01/17 01:58:56;;;;;;;14.93;8.00;;;;;;;-145.69;63.14;52377.06;5136440;27;20216;-81
2024/01/17 02:01:25;;;;;;;20.47;9.20;;;;;;;-145.69;63.26;52365.16;5136156;27;20193;-81
2024/01/17 02:03:54;;;;;;;20.20;8.30;;;;;;;-145.69;63.33;52351.31;5136345;27;20204;-80
2024/01/17 02:06:23;;;;;;;16.33;7.90;;;;;;;-145.69;63.29;52357.25;5136241;27;20577;-81
2024/01/17 02:08:51;;;;;;;20.33;7.87;;;;;;;-145.69;63.36;52367.16;5136007;27;20196;-82
2024/01/17 02:11:18;;;;;;;16.47;8.07;;;;;;;-145.69;63.52;52383.00;5135931;27;20193;-81
2024/01/17 02:13:45;;;;;;;17.57;8.67;;;;;;;-145.69;63.42;52359.22;5136535;27;20200;-82
2024/01/17 02:16:12;;;;;;;16.20;7.73;;;;;;;-145.69;63.95;52329.53;5135751;27;20559;-80
2024/01/17 02:18:39;;;;;;;21.50;9.50;;;;;;;-145.69;64.09;52377.06;5139234;27;20188;-81
2024/01/17 02:21:05;;;;;;;16.10;8.53;;;;;;;-145.69;64.25;52379.03;5135754;27;20579;-81
2024/01/17 02:23:32;;;;;;;18.47;8.23;;;;;;;-145.69;63.84;52349.31;5135332;27;20205;-80
2024/01/17 02:25:59;;;;;;;19.60;9.00;;;;;;;-145.69;63.96;52365.16;5135652;27;20232;-81
2024/01/17 02:28:28;;;;;;;18.37;8.87;;;;;;;-145.69;63.77;52365.16;5135476;27;20189;-79
2024/01/17 02:30:55;;;;;;;19.23;8.43;;;;;;;-145.69;63.80;52355.28;5135637;27;20197;-82
2024/01/17 02:33:21;;;;;;;19.07;8.63;;;;;;;-145.69;63.99;52381.00;5135696;27;20197;-81
2024/01/17 02:35:48;;;;;;;19.27;8.43;;;;;;;-145.69;64.31;52373.09;5135433;27;20604;-81
2024/01/17 02:38:15;;;;;;;16.40;8.17;;;;;;;-145.69;64.26;52353.28;5135448;27;20262;-82
2024/01/17 02:40:41;;;;;;;19.03;8.60;;;;;;;-145.69;64.43;52351.31;5135317;27;20196;-80
2024/01/17 02:43:09;;;;;;;18.40;7.73;;;;;;;-145.69;64.34;52341.41;5135588;27;20250;-81
2024/01/17 02:45:36;;;;;;;18.45;9.27;;;;;;;-145.69;64.50;52369.13;5138373;27;20923;-81
2024/01/17 02:48:03;;;;;;;19.67;9.50;;;;;;;-145.69;64.49;52361.22;5135194;27;20245;-80
2024/01/17 02:50:30;;;;;;;18.27;9.17;;;;;;;-145.69;64.01;52384.97;5135369;27;20307;-80
2024/01/17 02:52:57;;;;;;;25.67;9.67;;;;;;;-145.69;64.28;52388.94;5135196;27;20197;-81
2024/01/17 02:55:23;;;;;;;23.07;10.20;;;;;;;-145.69;64.24;52361.22;5135141;27;20211;-81
2024/01/17 02:57:50;;;;;;;21.77;9.57;;;;;;;-145.69;64.35;52373.09;5134684;27;20392;-79
2024/01/17 03:00:19;;;;;;;17.70;8.47;;;;;;;-145.69;64.68;52396.84;5134931;27;20646;-80
2024/01/17 03:02:46;;;;;;;17.97;8.80;;;;;;;-145.69;64.29;52365.16;5134982;27;20243;-80
2024/01/17 03:05:13;;;;;;;17.30;9.37;;;;;;;-145.69;64.52;52361.22;5134871;27;20201;-81
2024/01/17 03:07:39;;;;;;;18.70;8.83;;;;;;;-145.69;64.81;52311.69;5134869;27;20220;-80
2024/01/17 03:10:09;;;;;;;21.27;10.00;;;;;;;-145.69;64.81;52357.25;5135638;27;20197;-81
2024/01/17 03:12:35;;;;;;;18.73;9.37;;;;;;;-145.69;64.95;52365.16;5124936;27;20229;-81
2024/01/17 03:15:02;;;;;;;22.10;10.03;;;;;;;-145.69;64.47;52400.81;5114249;28;20878;-82
2024/01/17 03:17:30;;;;;;;21.93;10.63;;;;;;;-145.69;64.75;52357.25;5116726;27;20197;-81
2024/01/17 03:19:57;;;;;;;18.50;9.83;;;;;;;-145.69;65.09;52363.19;5134811;27;20193;-79
2024/01/17 03:22:23;;;;;;;23.17;9.80;;;;;;;-145.69;64.64;52369.13;5134415;27;20200;-80
2024/01/17 03:24:49;;;;;;;20.70;10.03;;;;;;;-145.69;65.14;52357.25;5134443;27;20205;-81
2024/01/17 03:27:16;;;;;;;24.77;10.77;;;;;;;-145.69;64.65;52361.22;5134527;27;20220;-79
2024/01/17 03:29:42;;;;;;;21.17;10.00;;;;;;;-145.69;64.23;52341.41;5134624;27;20205;-80
2024/01/17 03:32:09;;;;;;;20.87;9.30;;;;;;;-145.69;64.21;52321.59;5134426;27;20670;-80
2024/01/17 03:34:38;;;;;;;22.53;9.90;;;;;;;-145.69;64.33;52369.13;5134288;27;20200;-80
2024/01/17 03:37:04;;;;;;;18.60;9.33;;;;;;;-145.69;64.63;52369.13;5134526;27;20288;-80
2024/01/17 03:39:33;;;;;;;17.57;9.47;;;;;;;-145.69;64.34;52351.31;5134231;27;20671;-80
2024/01/17 03:42:00;;;;;;;15.13;8.10;;;;;;;-145.69;64.69;52357.25;5134290;27;20205;-78
2024/01/17 03:44:26;;;;;;;17.93;9.10;;;;;;;-145.69;64.58;52377.06;5134378;27;20208;-80
2024/01/17 03:46:53;;;;;;;17.50;8.57;;;;;;;-145.69;64.72;52384.97;5133857;27;20232;-82
2024/01/17 03:49:19;;;;;;;20.73;9.33;;;;;;;-145.69;64.59;52390.91;5133906;27;20589;-80
2024/01/17 03:51:47;;;;;;;17.93;7.93;;;;;;;-145.69;64.77;52373.09;5134168;27;20196;-80
2024/01/17 03:54:13;;;;;;;16.60;8.07;;;;;;;-145.69;64.79;52381.00;5133975;27;20205;-81
2024/01/17 03:56:40;;;;;;;16.83;8.03;;;;;;;-145.69;64.56;52365.16;5133986;27;20197;-80
2024/01/17 03:59:06;;;;;;;15.00;7.60;;;;;;;-145.69;65.23;52384.97;5134089;27;20201;-80
2024/01/17 04:01:33;;;;;;;15.57;8.20;;;;;;;-145.69;65.33;52375.06;5134003;27;20196;-79
2024/01/17 04:03:59;;;;;;;15.43;7.70;;;;;;;-145.69;65.40;52369.13;5134014;27;20193;-80
2024/01/17 04:06:28;;;;;;;16.33;8.63;;;;;;;-145.69;65.58;52343.38;5133879;27;20220;-81
2024/01/17 04:08:56;;;;;;;16.63;8.27;;;;;;;-145.69;65.33;52329.53;5134256;28;20241;-80
2024/01/17 04:11:23;;;;;;;17.27;7.67;;;;;;;-145.69;64.99;52365.16;5133586;27;20200;-80
2024/01/17 04:13:49;;;;;;;22.17;8.77;;;;;;;-145.69;64.77;52353.28;5133689;28;20209;-80
2024/01/17 04:16:16;;;;;;;14.60;7.57;;;;;;;-145.69;65.01;52355.28;5133823;28;20554;-80
2024/01/17 04:18:42;;;;;;;15.83;7.80;;;;;;;-145.69;64.96;52357.25;5137662;27;20211;-81
2024/01/17 04:21:09;;;;;;;14.83;7.27;;;;;;;-145.69;64.87;52381.00;5133137;28;20193;-81
2024/01/17 04:23:35;;;;;;;14.97;7.67;;;;;;;-145.69;64.87;52343.38;5133909;27;20201;-81
2024/01/17 04:26:03;;;;;;;17.57;6.97;;;;;;;-145.69;65.27;52353.28;5133898;27;20200;-82
2024/01/17 04:28:30;;;;;;;20.93;7.43;;;;;;;-145.69;65.10;52361.22;5133461;27;20314;-81
2024/01/17 04:30:56;;;;;;;21.97;7.93;;;;;;;-145.69;65.26;52361.22;5133658;27;20204;-80
2024/01/17 04:33:23;;;;;;;16.00;7.50;;;;;;;-145.69;65.42;52367.16;5133742;27;20200;-78
2024/01/17 04:35:50;;;;;;;16.77;7.40;;;;;;;-145.69;65.62;52361.22;5133831;27;20241;-79
2024/01/17 04:38:16;;;;;;;16.50;8.00;;;;;;;-145.69;65.33;52384.97;5137340;27;20184;-79
2024/01/17 04:40:43;;;;;;;14.00;7.47;;;;;;;-145.69;65.73;52345.38;5154427;27;20295;-80
2024/01/17 04:43:11;;;;;;;15.27;7.10;;;;;;;-145.69;65.28;52365.16;5154248;27;20200;-81
2024/01/17 04:45:37;;;;;;;14.33;7.43;;;;;;;-145.69;65.54;52381.00;5154430;27;20223;-79
2024/01/17 04:48:07;;;;;;;18.87;7.57;;;;;;;-145.69;65.33;52373.09;5136890;27;20237;-81
2024/01/17 04:50:34;;;;;;;16.57;7.73;;;;;;;-145.69;65.47;52386.97;5133716;27;20192;-80
2024/01/17 04:53:00;;;;;;;15.80;7.20;;;;;;;-145.69;65.63;52377.06;5133348;27;20242;-81
2024/01/17 04:55:27;;;;;;;20.73;7.43;;;;;;;-145.69;65.86;52355.28;5133438;27;20197;-81
2024/01/17 04:57:53;;;;;;;13.90;7.20;;;;;;;-145.69;65.88;52351.31;5133567;27;20196;-82
2024/01/17 05:00:21;;;;;;;14.67;6.93;;;;;;;-145.69;66.11;52345.38;5133514;27;20525;-81
2024/01/17 05:02:47;;;;;;;13.60;6.60;;;;;;;-145.69;65.77;52383.00;5133513;27;20193;-82
2024/01/17 05:05:14;;;;;;;14.13;6.43;;;;;;;-145.69;65.88;52365.16;5133245;28;20193;-81
2024/01/17 05:07:40;;;;;;;13.00;6.20;;;;;;;-145.69;66.03;52388.94;5133321;28;20734;-80
2024/01/17 05:10:08;;;;;;;16.80;6.63;;;;;;;-145.69;65.77;52369.13;5133322;27;20193;-81
2024/01/17 05:12:35;;;;;;;19.70;7.67;;;;;;;-145.69;65.43;52373.09;5133175;27;20234;-81
2024/01/17 05:15:01;;;;;;;14.67;6.83;;;;;;;-145.69;65.57;52349.31;5134317;27;20261;-80
2024/01/17 05:17:29;;;;;;;14.40;6.73;;;;;;;-145.69;65.44;52377.06;5133459;28;20203;-81
2024/01/17 05:19:56;;;;;;;17.40;7.60;;;;;;;-145.69;65.46;52361.22;5120673;27;20644;-81
2024/01/17 05:22:22;;;;;;;13.27;6.80;;;;;;;-145.69;65.46;52359.22;5112761;28;20231;-81
2024/01/17 05:24:48;;;;;;;13.13;5.97;;;;;;;-145.69;65.89;52361.22;5130945;27;20188;-81
2024/01/17 05:27:15;;;;;;;15.37;6.87;;;;;;;-145.69;65.56;52379.03;5136889;27;20578;-81
2024/01/17 05:29:44;;;;;;;18.43;7.27;;;;;;;-145.69;65.54;52357.25;5136722;27;20207;-81
2024/01/17 05:32:11;;;;;;;12.03;6.43;;;;;;;-145.69;66.23;52353.28;5136830;27;20280;-81
2024/01/17 05:34:38;;;;;;;14.23;6.57;;;;;;;-145.69;65.81;52367.16;5136559;27;20200;-80
2024/01/17 05:37:06;;;;;;;15.83;7.20;;;;;;;-145.69;65.88;52337.44;5136816;27;20215;-82
2024/01/17 05:39:32;;;;;;;15.60;6.50;;;;;;;-145.69;65.44;52347.34;5136576;27;20208;-82
2024/01/17 05:41:59;;;;;;;14.17;6.57;;;;;;;-145.69;65.68;52367.16;5136471;27;20669;-81
2024/01/17 05:44:25;;;;;;;14.03;6.10;;;;;;;-145.69;65.84;52392.91;5137345;27;20201;-80
2024/01/17 05:46:52;;;;;;;15.13;6.47;;;;;;;-145.69;65.43;52369.13;5136028;27;20224;-82
2024/01/17 05:49:18;;;;;;;22.50;7.63;;;;;;;-145.69;65.28;52341.41;5136309;27;20677;-81
2024/01/17 05:51:46;;;;;;;24.13;9.37;;;;;;;-145.69;65.48;52355.28;5136392;27;20296;-81
2024/01/17 05:54:13;;;;;;;14.80;7.83;;;;;;;-145.69;65.18;52349.31;5136144;27;20196;-81
2024/01/17 05:56:39;;;;;;;18.03;8.27;;;;;;;-145.69;65.18;52343.38;5136486;27;20201;-81
2024/01/17 05:59:06;;;;;;;13.00;6.07;;;;;;;-145.69;66.11;52353.28;5136578;27;20223;-80
2024/01/17 06:01:34;;;;;;;12.70;6.33;;;;;;;-145.69;65.76;52375.06;5136320;27;20201;-80
2024/01/17 06:04:00;;;;;;;17.03;6.90;;;;;;;-145.69;66.11;52361.22;5135990;27;20201;-80
2024/01/17 06:06:27;;;;;;;11.43;6.23;;;;;;;-145.69;65.70;52351.31;5136176;27;20559;-80
2024/01/17 06:08:55;;;;;;;16.17;6.67;;;;;;;-145.69;65.33;52337.44;5135792;27;20330;-80
2024/01/17 06:11:21;;;;;;;18.20;6.20;;;;;;;-145.69;65.76;52333.47;5135888;27;20208;-81
2024/01/17 06:13:48;;;;;;;11.20;6.13;;;;;;;-145.69;65.85;52369.13;5135996;27;20200;-80
2024/01/17 06:16:14;;;;;;;10.00;6.00;;;;;;;-145.69;65.18;52337.44;5136148;27;20203;-80
2024/01/17 06:18:41;;;;;;;11.37;5.97;;;;;;;-145.69;65.93;52333.47;5135751;27;20207;-79
2024/01/17 06:21:07;;;;;;;9.50;5.00;;;;;;;-145.69;66.74;52400.81;5135856;27;20226;-79
2024/01/17 06:23:33;;;;;;;10.87;5.70;;;;;;;-145.69;66.50;52353.28;5135429;27;20204;-80
2024/01/17 06:26:01;;;;;;;11.07;5.10;;;;;;;-145.69;66.30;52377.06;5135812;27;20206;-79
2024/01/17 06:28:28;;;;;;;8.17;3.73;;;;;;;-145.69;67.54;52359.22;5135490;27;20629;-79
2024/01/17 06:30:55;;;;;;;6.80;2.97;;;;;;;-145.69;67.21;52365.16;5135517;27;20651;-79
2024/01/17 06:33:21;;;;;;;5.03;2.87;;;;;;;-145.69;66.75;52321.59;5135642;27;20197;-79
2024/01/17 06:35:49;;;;;;;6.13;3.50;;;;;;;-145.69;66.23;52357.25;5135074;27;20249;-80
2024/01/17 06:38:16;;;;;;;5.27;3.07;;;;;;;-145.69;65.89;52335.47;5135665;27;20204;-81
2024/01/17 06:40:42;;;;;;;4.20;2.50;;;;;;;-145.69;65.66;52357.25;5136636;27;20227;-81
2024/01/17 06:43:10;;;;;;;4.33;2.70;;;;;;;-145.69;65.68;52351.31;5135505;27;20204;-80
2024/01/17 06:45:37;;;;;;;4.77;2.97;;;;;;;-145.69;65.78;52339.44;5135285;27;20200;-80
2024/01/17 06:48:04;;;;;;;3.70;2.27;;;;;;;-145.69;65.88;52371.13;5134947;27;20583;-80
2024/01/17 06:50:30;;;;;;;4.43;2.43;;;;;;;-145.69;64.69;52343.38;5134701;27;20245;-80
2024/01/17 06:52:57;;;;;;;4.00;2.70;;;;;;;-145.69;64.54;52325.56;5135410;27;20193;-79
2024/01/17 06:55:23;;;;;;;6.27;2.20;;;;;;;-145.69;64.72;52333.47;5135134;27;20212;-80
2024/01/17 06:57:50;;;;;;;3.93;2.10;;;;;;;-145.69;64.37;52367.16;5135106;27;20203;-81
2024/01/17 07:00:18;;;;;;;4.57;2.47;;;;;;;-145.69;64.57;52337.44;5134917;27;20189;-79
2024/01/17 07:02:47;;;;;;;3.60;2.30;;;;;;;-145.69;64.54;52353.28;5134959;27;20231;-80
2024/01/17 07:05:14;;;;;;;3.00;2.27;;;;;;;-145.69;64.49;52349.31;5134799;27;20285;-79
2024/01/17 07:07:40;;;;;;;2.70;2.20;;;;;;;-145.69;65.15;52347.34;5135714;27;20625;-79
2024/01/17 07:10:08;;;;;;;6.33;2.80;;;;;;;-145.69;64.22;52341.41;5134968;27;20197;-79
2024/01/17 07:12:34;;;;;;;3.80;2.53;;;;;;;-145.69;64.34;52331.50;5134801;27;20206;-79
2024/01/17 07:15:01;;;;;;;3.07;2.03;;;;;;;-145.69;64.58;52357.25;5134904;27;20197;-81
2024/01/17 07:17:29;;;;;;;3.13;2.03;;;;;;;-145.69;64.56;52353.28;5138047;27;20188;-80
2024/01/17 07:19:55;;;;;;;2.67;2.00;;;;;;;-145.69;64.36;52341.41;5115082;27;20197;-79
2024/01/17 07:22:22;;;;;;;3.40;1.53;;;;;;;-145.69;64.20;52351.31;5113715;28;20197;-80
2024/01/17 07:24:51;;;;;;;3.23;1.90;;;;;;;-145.69;64.15;52333.47;5113921;28;20193;-79
2024/01/17 07:27:17;;;;;;;4.13;1.90;;;;;;;-145.69;63.91;52321.59;5116919;27;20230;-80
2024/01/17 07:29:44;;;;;;;2.50;1.80;;;;;;;-145.69;63.97;52339.44;5134658;27;20197;-81
2024/01/17 07:32:10;;;;;;;2.10;1.70;;;;;;;-145.69;63.86;52341.41;5134377;27;20204;-79
2024/01/17 07:34:38;;;;;;;2.37;1.80;;;;;;;-145.69;64.31;52363.19;5134541;27;20200;-80
2024/01/17 07:37:05;;;;;;;2.20;1.50;;;;;;;-145.69;64.71;52345.38;5148859;27;20206;-80
2024/01/17 07:39:31;;;;;;;1.60;1.40;;;;;;;-145.69;64.66;52363.19;5155256;27;20241;-79
2024/01/17 07:41:58;;;;;;;1.63;1.40;;;;;;;-145.69;64.41;52339.44;5154996;27;20211;-79
2024/01/17 07:44:29;;;;;;;1.70;1.30;;;;;;;-145.69;64.10;52351.31;5155107;27;20675;-80
2024/01/17 07:46:56;;;;;;;16.80;6.20;;;;;;;-145.69;64.05;52367.16;5139921;27;20285;-80
2024/01/17 07:49:23;;;;;;;3.80;2.50;;;;;;;-145.69;64.00;52343.38;5134163;27;20300;-79
2024/01/17 07:51:51;;;;;;;2.30;1.77;;;;;;;-145.69;63.96;52353.28;5134271;27;20197;-80
2024/01/17 07:54:18;;;;;;;1.20;1.10;;;;;;;-145.69;63.95;52369.13;5133988;27;20196;-81
2024/01/17 07:56:45;;;;;;;1.47;1.20;;;;;;;-145.69;64.06;52331.50;5134114;27;20715;-81
2024/01/17 07:59:12;;;;;;;1.43;1.20;;;;;;;-145.69;63.93;52347.34;5133782;27;20196;-81
2024/01/17 08:01:39;;;;;;;1.60;1.20;;;;;;;-145.69;63.91;52325.56;5134261;27;20197;-80
2024/01/17 08:04:06;;;;;;;1.30;1.20;;;;;;;-145.69;63.79;52349.31;5133893;27;20193;-82
2024/01/17 08:06:32;;;;;;;1.20;1.10;;;;;;;-145.69;62.95;52347.34;5134252;27;20232;-81
2024/01/17 08:09:00;;;;;;;1.40;1.13;;;;;;;-145.69;63.41;52373.09;5134174;27;20709;-81
2024/01/17 08:11:26;;;;;;;1.43;1.17;;;;;;;-145.69;63.49;52359.22;5133754;27;20197;-81
2024/01/17 08:13:53;;;;;;;1.40;1.30;;;;;;;-145.69;63.81;52333.47;5133117;27;20193;-81
2024/01/17 08:16:20;;;;;;;1.33;1.13;;;;;;;-145.69;63.53;52335.47;5133778;27;20706;-81
2024/01/17 08:18:48;;;;;;;1.17;1.07;;;;;;;-145.69;63.38;52373.09;5133829;27;20204;-80
2024/01/17 08:21:14;;;;;;;1.10;1.00;;;;;;;-145.69;64.51;52323.59;5134171;27;20200;-80
2024/01/17 08:23:41;;;;;;;1.13;0.90;;;;;;;-145.69;64.19;52345.38;5133804;27;20204;-80
2024/01/17 08:26:09;;;;;;;3.60;1.40;;;;;;;-145.69;63.44;52345.38;5134014;27;20212;-80
2024/01/17 08:28:35;;;;;;;1.10;1.00;;;;;;;-145.69;64.20;52323.59;5133600;27;20586;-81
2024/01/17 08:31:03;;;;;;;2.67;1.07;;;;;;;-145.69;65.40;52339.44;5133663;27;20200;-81
2024/01/17 08:33:29;;;;;;;2.57;1.07;;;;;;;-145.69;65.37;52333.47;5121879;28;20197;-81
2024/01/17 08:35:56;;;;;;;1.20;1.10;;;;;;;-145.69;65.83;52341.41;5133650;28;20673;-82
2024/01/17 08:38:22;;;;;;;1.03;1.00;;;;;;;-145.69;65.67;52319.63;5133563;28;20204;-81
2024/01/17 08:40:49;;;;;;;0.80;0.80;;;;;;;-145.69;66.32;52349.31;5133595;27;20196;-80
2024/01/17 08:43:17;;;;;;;0.90;0.90;;;;;;;-145.69;66.12;52321.59;5133828;27;20288;-81
2024/01/17 08:45:43;;;;;;;1.10;1.00;;;;;;;-145.69;65.76;52345.38;5133559;27;20196;-81
2024/01/17 08:48:10;;;;;;;1.53;1.07;;;;;;;-145.69;65.83;52347.34;5133002;27;20232;-83
2024/01/17 08:50:36;;;;;;;1.00;0.90;;;;;;;-145.69;66.89;52349.31;5133914;28;20306;-80
2024/01/17 08:53:04;;;;;;;0.90;0.90;;;;;;;-145.69;66.36;52323.59;5133155;27;20207;-81
2024/01/17 08:55:30;;;;;;;0.87;0.87;;;;;;;-145.69;66.85;52315.66;5133524;27;20224;-80
2024/01/17 08:57:57;;;;;;;0.80;0.80;;;;;;;-145.69;67.00;52325.56;5133966;27;20224;-80
2024/01/17 09:00:24;;;;;;;0.70;0.70;;;;;;;-145.69;67.04;52361.22;5137561;27;20651;-81
2024/01/17 09:02:51;;;;;;;0.90;0.90;;;;;;;-145.69;66.13;52337.44;5137118;27;20219;-81
2024/01/17 09:05:20;;;;;;;0.83;0.80;;;;;;;-145.69;66.64;52361.22;5151946;27;20220;-81
2024/01/17 09:07:48;;;;;;;1.00;0.90;;;;;;;-145.69;66.28;52345.38;5157892;27;20558;-82
2024/01/17 09:10:16;;;;;;;0.67;0.67;;;;;;;-145.69;66.60;52313.69;5158580;27;20290;-79
2024/01/17 09:12:43;;;;;;;0.80;0.80;;;;;;;-145.69;66.96;52315.66;5157825;27;20204;-80
2024/01/17 09:15:10;;;;;;;0.83;0.70;;;;;;;-145.69;66.65;52337.44;5147267;27;20215;-80
2024/01/17 09:17:38;;;;;;;0.80;0.80;;;;;;;-145.69;66.47;52361.22;5157844;27;20200;-79
2024/01/17 09:20:06;;;;;;;0.63;0.63;;;;;;;-145.69;66.08;52325.56;5157899;27;20204;-79
2024/01/17 09:22:32;;;;;;;0.80;0.80;;;;;;;-145.69;66.60;52313.69;5157798;27;20219;-79
2024/01/17 09:25:00;;;;;;;0.90;0.90;;;;;;;-145.69;66.06;52329.53;5149397;27;20207;-80
2024/01/17 09:27:27;;;;;;;1.40;1.10;;;;;;;-145.69;65.53;52325.56;5136821;27;20205;-80
2024/01/17 09:29:53;;;;;;;1.03;0.90;;;;;;;-145.69;66.08;52347.34;5136869;27;20264;-79
2024/01/17 09:32:20;;;;;;;1.33;0.97;;;;;;;-145.69;65.76;52323.59;5136928;27;20197;-80
2024/01/17 09:34:48;;;;;;;0.90;0.90;;;;;;;-145.69;65.42;52341.41;5141880;27;20266;-78
2024/01/17 09:37:14;;;;;;;0.90;0.90;;;;;;;-145.69;65.34;52335.47;5137937;27;20212;-80
2024/01/17 09:39:41;;;;;;;0.90;0.90;;;;;;;-145.69;65.58;52339.44;5136751;27;20204;-79
2024/01/17 09:42:07;;;;;;;0.97;0.93;;;;;;;-145.69;66.01;52365.16;5136448;27;20204;-80
2024/01/17 09:44:35;;;;;;;0.80;0.80;;;;;;;-145.69;65.05;52309.72;5137425;27;20666;-79
2024/01/17 09:47:02;;;;;;;0.90;0.90;;;;;;;-145.69;65.43;52325.56;5136046;27;20263;-81
2024/01/17 09:49:29;;;;;;;1.00;0.90;;;;;;;-145.69;65.65;52321.59;5136212;27;20221;-79
2024/01/17 09:51:57;;;;;;;1.80;1.20;;;;;;;-145.69;65.71;52321.59;5136572;27;20204;-80
2024/01/17 09:54:25;;;;;;;2.97;0.90;;;;;;;-145.69;65.25;52309.72;5137807;27;20211;-80
2024/01/17 09:56:55;;;;;;;0.80;0.80;;;;;;;-145.69;65.74;52331.50;5157238;27;20252;-80
2024/01/17 09:59:27;;;;;;;1.73;1.10;;;;;;;-145.69;66.29;52343.38;5157024;27;20196;-78
2024/01/17 10:01:54;;;;;;;1.13;1.00;;;;;;;-145.69;65.91;52321.59;5156946;27;20690;-80
2024/01/17 10:04:23;;;;;;;0.90;0.80;;;;;;;-145.69;66.16;52309.72;5154771;27;20200;-79
2024/01/17 10:06:50;;;;;;;2.17;0.90;;;;;;;-145.69;65.39;52325.56;5136254;27;20647;-79
2024/01/17 10:09:18;;;;;;;1.20;1.07;;;;;;;-145.69;65.09;52276.06;5135763;27;20225;-78
2024/01/17 10:11:44;;;;;;;0.90;0.90;;;;;;;-145.69;65.36;52347.34;5135428;27;20438;-78
2024/01/17 10:14:12;;;;;;;1.20;1.10;;;;;;;-145.69;65.02;52313.69;5135940;27;20204;-78
2024/01/17 10:16:38;;;;;;;2.13;1.37;;;;;;;-145.69;65.31;52309.72;5135456;27;20196;-78
2024/01/17 10:19:05;;;;;;;1.50;0.97;;;;;;;-145.69;64.73;52333.47;5136102;27;20578;-78
2024/01/17 10:21:33;;;;;;;0.70;0.70;;;;;;;-145.69;65.45;52303.78;5135463;27;20185;-77
2024/01/17 10:24:00;;;;;;;1.17;1.00;;;;;;;-145.69;65.92;52321.59;5135906;27;20201;-79
2024/01/17 10:26:28;;;;;;;2.00;1.30;;;;;;;-145.69;66.19;52337.44;5134816;27;20425;-78
2024/01/17 10:28:54;;;;;;;1.27;1.00;;;;;;;-145.69;65.52;52341.41;5135535;27;20625;-78
2024/01/17 10:31:21;;;;;;;1.27;1.17;;;;;;;-145.69;65.77;52317.66;5135372;27;20199;-79
2024/01/17 10:33:48;;;;;;;1.10;1.00;;;;;;;-145.69;65.38;52325.56;5135644;27;20204;-78
2024/01/17 10:36:15;;;;;;;1.30;1.20;;;;;;;-145.69;64.86;52349.31;5135046;27;20208;-79
2024/01/17 10:38:42;;;;;;;0.70;0.70;;;;;;;-145.69;65.04;52295.84;5135461;27;20200;-77
2024/01/17 10:41:08;;;;;;;0.97;0.90;;;;;;;-145.69;65.81;52337.44;5135402;27;20197;-78
2024/01/17 10:43:54;;;;;;;0.90;0.90;;;;;;;-145.69;65.13;52309.72;5134745;27;20208;-78
2024/01/17 10:46:20;;;;;;;0.70;0.70;;;;;;;-145.69;65.43;52325.56;5134590;27;20213;-77
2024/01/17 10:48:47;;;;;;;1.00;0.90;;;;;;;-145.69;64.95;52329.53;5135129;27;20687;-78
2024/01/17 10:51:19;;;;;;;0.80;0.80;;;;;;;-145.69;65.01;52325.56;5135136;27;20201;-77
2024/01/17 10:53:48;;;;;;;0.80;0.80;;;;;;;-145.69;65.11;52317.66;5135134;27;20196;-78
2024/01/17 10:56:18;;;;;;;0.60;0.60;;;;;;;-145.69;64.48;52321.59;5135316;27;20193;-78
2024/01/17 10:58:49;;;;;;;1.23;0.87;;;;;;;-145.69;64.45;52309.72;5134549;27;20246;-78
2024/01/17 11:01:21;;;;;;;1.37;0.90;;;;;;;-145.69;64.67;52317.66;5135097;27;20559;-78
2024/01/17 11:03:48;;;;;;;1.60;0.97;;;;;;;-145.69;64.12;52321.59;5134882;27;20562;-78
2024/01/17 11:06:16;;;;;;;0.80;0.80;;;;;;;-145.69;64.74;52285.97;5137979;27;20602;-77
2024/01/17 11:08:44;;;;;;;0.73;0.70;;;;;;;-145.69;64.04;52297.84;5133664;27;20217;-77
2024/01/17 11:11:12;;;;;;;1.57;1.00;;;;;;;-145.69;64.87;52301.81;5134512;27;20728;-78